Time;durP1;ratioP1;P1;durP2;ratioP2;P2;SDS_P1;SDS_P2;PMS_P1;PMS_P2;Temp;Humidity;BMP_temperature;BMP_pressure;BME280_temperature;BME280_humidity;BME280_pressure;Samples;Min_cycle;Max_cycle;Signal;HPM_P1;HPM_P2
2023/09/04 00:02:20;;;;;;;1.10;0.60;;;;;;;;;;10422725;28;20288;-76
2023/09/04 00:07:21;;;;;;;0.57;0.57;;;;;;;;;;10419350;28;20611;-70
2023/09/04 00:12:22;;;;;;;1.80;0.60;;;;;;;;;;10431531;28;20215;-73
2023/09/04 00:17:23;;;;;;;0.47;0.47;;;;;;;;;;10421483;28;20211;-74
2023/09/04 00:22:27;;;;;;;3.03;0.50;;;;;;;;;;10420752;28;20242;-73
2023/09/04 00:27:28;;;;;;;0.50;0.50;;;;;;;;;;10417629;28;20659;-77
2023/09/04 00:32:29;;;;;;;0.60;0.60;;;;;;;;;;10430361;28;20222;-75
2023/09/04 00:37:30;;;;;;;0.60;0.60;;;;;;;;;;10428440;28;20310;-69
2023/09/04 00:42:33;;;;;;;0.65;0.40;;;;;;;;;;10397367;28;20222;-72
2023/09/04 00:47:35;;;;;;;0.40;0.40;;;;;;;;;;10404269;28;20266;-75
2023/09/04 00:52:36;;;;;;;0.50;0.50;;;;;;;;;;10426023;28;20215;-75
2023/09/04 00:57:38;;;;;;;2.05;0.63;;;;;;;;;;10422234;28;20277;-73
2023/09/04 01:02:39;;;;;;;0.88;0.47;;;;;;;;;;10427273;28;20212;-76
2023/09/04 01:07:41;;;;;;;0.93;0.60;;;;;;;;;;10420137;28;20285;-73
2023/09/04 01:12:51;;;;;;;0.45;0.45;;;;;;;;;;10423425;28;20215;-74
2023/09/04 01:17:53;;;;;;;0.75;0.60;;;;;;;;;;10396843;28;20226;-69
2023/09/04 01:22:55;;;;;;;0.55;0.50;;;;;;;;;;10407454;28;20206;-70
2023/09/04 01:28:01;;;;;;;0.80;0.80;;;;;;;;;;10420834;28;20214;-75
2023/09/04 01:33:05;;;;;;;0.90;0.90;;;;;;;;;;10407522;28;20648;-71
2023/09/04 01:38:06;;;;;;;0.55;0.55;;;;;;;;;;10420739;28;20214;-73
2023/09/04 01:43:07;;;;;;;0.50;0.50;;;;;;;;;;10418250;28;20706;-69
2023/09/04 01:48:08;;;;;;;2.15;0.40;;;;;;;;;;10392679;28;20222;-69
2023/09/04 01:53:10;;;;;;;0.70;0.60;;;;;;;;;;10391043;28;20247;-73
2023/09/04 01:58:11;;;;;;;0.60;0.60;;;;;;;;;;10408571;28;20218;-73
2023/09/04 02:03:12;;;;;;;0.57;0.57;;;;;;;;;;10390032;28;20222;-71
2023/09/04 02:08:13;;;;;;;2.25;0.65;;;;;;;;;;10429381;28;20226;-71
2023/09/04 02:13:14;;;;;;;0.63;0.63;;;;;;;;;;10399423;28;20848;-73
2023/09/04 02:18:15;;;;;;;0.50;0.50;;;;;;;;;;10396253;28;20230;-70
2023/09/04 02:23:16;;;;;;;1.25;0.80;;;;;;;;;;10423342;28;20313;-70
2023/09/04 02:28:17;;;;;;;2.88;1.00;;;;;;;;;;10405309;28;20835;-68
2023/09/04 02:33:18;;;;;;;0.68;0.68;;;;;;;;;;10386777;28;20275;-69
2023/09/04 02:38:19;;;;;;;0.73;0.60;;;;;;;;;;10422460;28;20215;-69
2023/09/04 02:43:20;;;;;;;1.95;0.77;;;;;;;;;;10386246;28;20218;-72
2023/09/04 02:48:21;;;;;;;0.70;0.70;;;;;;;;;;10424863;28;20215;-69
2023/09/04 02:53:23;;;;;;;0.70;0.70;;;;;;;;;;10413777;28;20219;-70
2023/09/04 02:58:24;;;;;;;0.65;0.65;;;;;;;;;;10407317;28;20211;-71
2023/09/04 03:03:25;;;;;;;0.63;0.63;;;;;;;;;;10391444;28;20215;-71
2023/09/04 03:08:26;;;;;;;1.20;0.70;;;;;;;;;;10408078;28;20305;-71
2023/09/04 03:13:27;;;;;;;0.75;0.75;;;;;;;;;;10421488;28;20211;-70
2023/09/04 03:18:28;;;;;;;1.10;1.00;;;;;;;;;;10389588;28;20313;-70
2023/09/04 03:23:29;;;;;;;0.70;0.70;;;;;;;;;;10422832;28;20225;-72
2023/09/04 03:28:31;;;;;;;0.88;0.88;;;;;;;;;;10424110;28;20220;-71
2023/09/04 03:33:32;;;;;;;0.75;0.70;;;;;;;;;;10406639;28;20229;-70
2023/09/04 03:38:34;;;;;;;2.55;1.00;;;;;;;;;;10405584;28;20385;-72
2023/09/04 03:43:35;;;;;;;1.25;1.05;;;;;;;;;;10422423;28;20297;-73
2023/09/04 03:48:36;;;;;;;1.48;0.88;;;;;;;;;;10423825;28;20252;-72
2023/09/04 03:53:37;;;;;;;1.70;0.90;;;;;;;;;;10404962;28;20883;-72
2023/09/04 03:58:38;;;;;;;6.10;0.90;;;;;;;;;;10406016;28;20288;-71
2023/09/04 04:03:39;;;;;;;1.15;0.90;;;;;;;;;;10388944;28;20764;-68
2023/09/04 04:08:41;;;;;;;1.38;1.30;;;;;;;;;;10432214;28;20719;-70
2023/09/04 04:13:42;;;;;;;0.60;0.60;;;;;;;;;;10396542;28;20311;-76
2023/09/04 04:18:45;;;;;;;0.80;0.80;;;;;;;;;;10398483;28;20269;-71
2023/09/04 04:23:46;;;;;;;0.73;0.73;;;;;;;;;;10412946;28;20210;-73
2023/09/04 04:28:47;;;;;;;1.08;0.88;;;;;;;;;;10413765;28;20245;-75
2023/09/04 04:33:48;;;;;;;0.77;0.75;;;;;;;;;;10420034;28;20605;-73
2023/09/04 04:38:49;;;;;;;2.53;1.20;;;;;;;;;;10429708;28;20268;-70
2023/09/04 04:43:51;;;;;;;1.65;1.55;;;;;;;;;;10429160;28;20630;-74
2023/09/04 04:48:52;;;;;;;2.65;1.25;;;;;;;;;;10432180;28;20297;-71
2023/09/04 04:53:54;;;;;;;1.17;0.82;;;;;;;;;;10411351;28;20218;-72
2023/09/04 04:58:55;;;;;;;1.42;0.80;;;;;;;;;;10427442;28;20211;-75
2023/09/04 05:03:57;;;;;;;1.40;0.90;;;;;;;;;;10412504;28;20215;-73
2023/09/04 05:08:59;;;;;;;0.63;0.63;;;;;;;;;;10398143;28;20282;-72
2023/09/04 05:14:01;;;;;;;0.80;0.80;;;;;;;;;;10394983;28;20219;-73
2023/09/04 05:19:03;;;;;;;1.20;0.95;;;;;;;;;;10429292;28;20306;-71
2023/09/04 05:24:04;;;;;;;1.58;1.45;;;;;;;;;;10410182;28;20266;-71
2023/09/04 05:29:06;;;;;;;1.10;1.10;;;;;;;;;;10408733;28;20233;-70
2023/09/04 05:34:07;;;;;;;1.30;1.30;;;;;;;;;;10413615;28;20209;-71
2023/09/04 05:39:09;;;;;;;3.35;1.40;;;;;;;;;;10427763;28;20322;-70
2023/09/04 05:44:11;;;;;;;3.92;1.67;;;;;;;;;;10427911;28;20208;-68
2023/09/04 05:49:13;;;;;;;2.45;1.30;;;;;;;;;;10430790;28;20222;-69
2023/09/04 05:54:14;;;;;;;1.75;1.50;;;;;;;;;;10426990;28;20364;-68
2023/09/04 05:59:15;;;;;;;1.73;1.63;;;;;;;;;;10407040;28;20214;-71
2023/09/04 06:04:16;;;;;;;1.88;1.77;;;;;;;;;;10413105;28;20681;-71
2023/09/04 06:09:17;;;;;;;1.75;1.65;;;;;;;;;;10390202;28;20207;-68
2023/09/04 06:14:18;;;;;;;1.75;1.65;;;;;;;;;;10420463;28;20231;-69
2023/09/04 06:19:19;;;;;;;1.70;1.70;;;;;;;;;;10359527;28;20216;-68
2023/09/04 06:24:20;;;;;;;3.72;2.10;;;;;;;;;;10383042;28;20686;-71
2023/09/04 06:29:22;;;;;;;2.50;2.10;;;;;;;;;;10385390;28;20223;-69
2023/09/04 06:34:23;;;;;;;2.05;1.95;;;;;;;;;;10369403;28;20305;-69
2023/09/04 06:39:24;;;;;;;7.63;4.90;;;;;;;;;;10380588;28;20219;-71
2023/09/04 06:44:25;;;;;;;1.73;1.70;;;;;;;;;;10348953;28;20211;-68
2023/09/04 06:49:26;;;;;;;1.38;1.38;;;;;;;;;;10382084;28;20223;-70
2023/09/04 06:54:28;;;;;;;1.92;1.80;;;;;;;;;;10385145;28;20235;-77
2023/09/04 06:59:29;;;;;;;2.67;1.88;;;;;;;;;;10372512;28;20544;-76
2023/09/04 07:04:30;;;;;;;2.53;1.65;;;;;;;;;;10366862;28;20211;-75
2023/09/04 07:09:31;;;;;;;1.77;1.67;;;;;;;;;;10382594;28;20310;-70
2023/09/04 07:14:32;;;;;;;2.08;1.98;;;;;;;;;;10393663;28;20661;-71
2023/09/04 07:19:33;;;;;;;1.70;1.60;;;;;;;;;;10428443;28;20857;-71
2023/09/04 07:24:34;;;;;;;5.43;1.98;;;;;;;;;;10424563;28;20214;-75
2023/09/04 07:29:35;;;;;;;2.03;1.65;;;;;;;;;;10427476;28;20241;-72
2023/09/04 07:34:37;;;;;;;1.27;1.27;;;;;;;;;;10428131;28;20281;-75
2023/09/04 07:39:39;;;;;;;4.00;1.83;;;;;;;;;;10435750;28;20221;-75
2023/09/04 07:44:40;;;;;;;1.40;1.40;;;;;;;;;;10440692;28;20214;-70
2023/09/04 07:49:41;;;;;;;0.75;0.75;;;;;;;;;;10439183;28;20221;-71
2023/09/04 07:54:44;;;;;;;1.45;1.13;;;;;;;;;;10440345;28;20225;-69
2023/09/04 07:59:45;;;;;;;5.05;0.98;;;;;;;;;;10436995;28;20219;-71
2023/09/04 08:04:46;;;;;;;0.60;0.60;;;;;;;;;;10409570;28;20294;-71
2023/09/04 08:09:48;;;;;;;0.60;0.60;;;;;;;;;;10434621;28;20268;-71
2023/09/04 08:14:51;;;;;;;0.82;0.60;;;;;;;;;;10451185;28;20227;-71
2023/09/04 08:19:52;;;;;;;1.83;0.77;;;;;;;;;;10435786;28;20293;-70
2023/09/04 08:24:56;;;;;;;0.80;0.80;;;;;;;;;;10442215;28;20365;-70
2023/09/04 08:29:57;;;;;;;1.95;0.60;;;;;;;;;;10436025;28;20280;-75
2023/09/04 08:34:58;;;;;;;0.50;0.50;;;;;;;;;;10434446;28;20443;-69
2023/09/04 08:40:01;;;;;;;1.73;0.65;;;;;;;;;;10435911;28;20285;-72
2023/09/04 08:45:03;;;;;;;0.50;0.50;;;;;;;;;;10442344;28;20207;-70
2023/09/04 08:50:05;;;;;;;0.68;0.68;;;;;;;;;;10433930;28;20210;-72
2023/09/04 08:55:06;;;;;;;0.70;0.70;;;;;;;;;;10410776;28;20314;-71
2023/09/04 09:00:07;;;;;;;0.52;0.52;;;;;;;;;;10428448;28;20191;-69
2023/09/04 09:05:09;;;;;;;0.55;0.55;;;;;;;;;;10429290;28;20323;-69
2023/09/04 09:10:13;;;;;;;5.68;0.50;;;;;;;;;;10422315;28;20293;-75
2023/09/04 09:15:17;;;;;;;1.27;0.70;;;;;;;;;;10430323;28;20536;-73
2023/09/04 09:20:30;;;;;;;0.65;0.65;;;;;;;;;;10430277;28;20212;-73
2023/09/04 09:25:31;;;;;;;0.93;0.60;;;;;;;;;;10437324;28;20222;-73
2023/09/04 09:30:34;;;;;;;1.00;0.70;;;;;;;;;;10429503;28;20211;-73
2023/09/04 09:35:35;;;;;;;0.40;0.40;;;;;;;;;;10432577;28;20625;-73
2023/09/04 09:40:37;;;;;;;0.68;0.68;;;;;;;;;;10434895;28;20628;-69
2023/09/04 09:45:38;;;;;;;1.02;0.70;;;;;;;;;;10429032;28;20595;-75
2023/09/04 09:50:40;;;;;;;0.40;0.40;;;;;;;;;;10429169;28;20653;-70
2023/09/04 09:55:41;;;;;;;1.45;0.70;;;;;;;;;;10410684;28;20220;-77
2023/09/04 10:00:43;;;;;;;0.40;0.40;;;;;;;;;;10409664;28;20211;-74
2023/09/04 10:05:44;;;;;;;0.40;0.40;;;;;;;;;;10409548;28;20218;-69
2023/09/04 10:10:47;;;;;;;0.50;0.50;;;;;;;;;;10423958;28;20215;-71
2023/09/04 10:15:50;;;;;;;0.50;0.50;;;;;;;;;;10408493;28;20222;-73
2023/09/04 10:20:53;;;;;;;0.43;0.43;;;;;;;;;;10428558;28;20207;-72
2023/09/04 10:25:54;;;;;;;0.55;0.55;;;;;;;;;;10408126;28;20199;-71
2023/09/04 10:30:56;;;;;;;0.50;0.50;;;;;;;;;;10428647;28;20211;-74
2023/09/04 10:35:58;;;;;;;0.95;0.50;;;;;;;;;;10408793;28;20231;-70
2023/09/04 10:40:59;;;;;;;0.50;0.50;;;;;;;;;;10426042;28;20212;-72
2023/09/04 10:46:04;;;;;;;0.40;0.40;;;;;;;;;;10445278;28;20768;-73
2023/09/04 10:51:25;;;;;;;0.60;0.60;;;;;;;;;;10429299;28;20288;-76
2023/09/04 10:56:26;;;;;;;1.30;0.88;;;;;;;;;;10433579;28;20222;-72
2023/09/04 11:01:35;;;;;;;0.30;0.30;;;;;;;;;;10410893;28;20419;-73
2023/09/04 11:06:37;;;;;;;0.50;0.50;;;;;;;;;;10429078;28;20269;-76
2023/09/04 11:11:39;;;;;;;0.40;0.40;;;;;;;;;;10427899;28;20238;-71
2023/09/04 11:16:48;;;;;;;0.32;0.32;;;;;;;;;;10425758;28;20219;-76
2023/09/04 11:21:50;;;;;;;0.52;0.52;;;;;;;;;;10432916;28;20234;-73
2023/09/04 11:26:51;;;;;;;0.68;0.40;;;;;;;;;;10423773;28;20257;-71
2023/09/04 11:31:52;;;;;;;2.10;0.40;;;;;;;;;;10424027;28;20218;-74
2023/09/04 11:36:53;;;;;;;0.38;0.38;;;;;;;;;;10425041;28;20686;-71
2023/09/04 11:41:54;;;;;;;0.60;0.40;;;;;;;;;;10432913;28;20594;-73
2023/09/04 11:46:55;;;;;;;0.52;0.52;;;;;;;;;;10411894;28;20275;-71
2023/09/04 11:51:57;;;;;;;0.40;0.40;;;;;;;;;;10416280;28;20268;-74
2023/09/04 11:56:59;;;;;;;0.40;0.40;;;;;;;;;;10424774;28;20945;-72
2023/09/04 12:02:00;;;;;;;0.40;0.40;;;;;;;;;;10428250;28;20215;-73
2023/09/04 12:07:01;;;;;;;0.30;0.30;;;;;;;;;;10421681;28;20264;-72
2023/09/04 12:12:04;;;;;;;0.98;0.50;;;;;;;;;;10424952;28;20221;-74
2023/09/04 12:17:10;;;;;;;0.35;0.35;;;;;;;;;;10423541;28;20391;-71
2023/09/04 12:22:12;;;;;;;1.85;0.40;;;;;;;;;;10421503;28;20256;-73
2023/09/04 12:27:14;;;;;;;0.35;0.35;;;;;;;;;;10428273;28;20566;-73
2023/09/04 12:32:15;;;;;;;0.38;0.38;;;;;;;;;;10431724;28;20211;-73
2023/09/04 12:37:19;;;;;;;0.40;0.40;;;;;;;;;;10427626;28;20242;-74
2023/09/04 12:42:20;;;;;;;0.30;0.30;;;;;;;;;;10427413;28;20207;-74
2023/09/04 12:47:21;;;;;;;0.47;0.47;;;;;;;;;;10414858;28;20735;-74
2023/09/04 12:52:22;;;;;;;0.40;0.40;;;;;;;;;;10429799;28;20227;-72
2023/09/04 12:57:23;;;;;;;0.40;0.40;;;;;;;;;;10411797;28;20209;-73
2023/09/04 13:02:25;;;;;;;1.17;0.40;;;;;;;;;;10432253;28;20207;-73
2023/09/04 13:07:26;;;;;;;0.30;0.30;;;;;;;;;;10427429;28;20219;-71
2023/09/04 13:12:27;;;;;;;2.00;0.30;;;;;;;;;;10428346;28;20211;-75
2023/09/04 13:17:28;;;;;;;0.38;0.38;;;;;;;;;;10422466;28;20226;-72
2023/09/04 13:22:29;;;;;;;1.13;0.32;;;;;;;;;;10429904;28;20262;-76
2023/09/04 13:27:31;;;;;;;0.50;0.50;;;;;;;;;;10413100;28;20219;-74
2023/09/04 13:32:32;;;;;;;0.50;0.50;;;;;;;;;;10417498;28;20577;-73
2023/09/04 13:37:34;;;;;;;1.50;0.40;;;;;;;;;;10432649;28;20265;-71
2023/09/04 13:42:35;;;;;;;0.38;0.32;;;;;;;;;;10432565;28;20375;-75
2023/09/04 13:47:36;;;;;;;0.45;0.45;;;;;;;;;;10416990;28;20215;-72
2023/09/04 13:52:37;;;;;;;0.50;0.50;;;;;;;;;;10431426;28;20221;-73
2023/09/04 13:57:38;;;;;;;0.45;0.45;;;;;;;;;;10411317;28;21278;-71
2023/09/04 14:02:40;;;;;;;0.73;0.50;;;;;;;;;;10425389;28;20214;-74
2023/09/04 14:07:41;;;;;;;0.40;0.40;;;;;;;;;;10430074;28;20219;-72
2023/09/04 14:12:42;;;;;;;0.70;0.40;;;;;;;;;;10434418;28;20214;-73
2023/09/04 14:17:43;;;;;;;0.32;0.32;;;;;;;;;;10390033;28;20227;-71
2023/09/04 14:22:44;;;;;;;0.40;0.40;;;;;;;;;;10392990;28;20246;-72
2023/09/04 14:27:46;;;;;;;21.17;2.20;;;;;;;;;;10377927;28;20247;-76
2023/09/04 14:32:47;;;;;;;5.88;0.75;;;;;;;;;;10393427;28;20215;-74
2023/09/04 14:37:49;;;;;;;0.60;0.60;;;;;;;;;;10383844;28;20310;-73
2023/09/04 14:42:50;;;;;;;0.47;0.47;;;;;;;;;;10380732;28;20212;-72
2023/09/04 14:47:53;;;;;;;0.40;0.40;;;;;;;;;;10373981;28;20301;-72
2023/09/04 14:52:54;;;;;;;1.60;0.32;;;;;;;;;;10365439;28;20200;-72
2023/09/04 14:57:56;;;;;;;0.40;0.40;;;;;;;;;;10374849;28;20479;-71
2023/09/04 15:02:57;;;;;;;0.60;0.47;;;;;;;;;;10381745;28;20224;-74
2023/09/04 15:07:58;;;;;;;1.38;0.50;;;;;;;;;;10394129;28;20701;-74
2023/09/04 15:13:00;;;;;;;0.40;0.40;;;;;;;;;;10375553;28;20215;-73
2023/09/04 15:18:01;;;;;;;0.50;0.50;;;;;;;;;;10429034;28;20233;-72
2023/09/04 15:23:02;;;;;;;0.50;0.50;;;;;;;;;;10431912;28;20301;-72
2023/09/04 15:28:03;;;;;;;0.50;0.50;;;;;;;;;;10406069;28;20578;-71
2023/09/04 15:33:04;;;;;;;0.45;0.45;;;;;;;;;;10429126;28;20222;-71
2023/09/04 15:38:06;;;;;;;0.47;0.47;;;;;;;;;;10395895;28;20226;-73
2023/09/04 15:43:07;;;;;;;0.50;0.50;;;;;;;;;;10430752;28;20207;-72
2023/09/04 15:48:08;;;;;;;0.50;0.50;;;;;;;;;;10418964;28;20654;-73
2023/09/04 15:53:09;;;;;;;0.50;0.50;;;;;;;;;;10409924;28;20222;-73
2023/09/04 15:58:10;;;;;;;0.50;0.50;;;;;;;;;;10409621;28;20210;-72
2023/09/04 16:03:11;;;;;;;1.95;0.60;;;;;;;;;;10439203;28;20318;-71
2023/09/04 16:08:13;;;;;;;0.63;0.63;;;;;;;;;;10425237;28;20238;-74
2023/09/04 16:13:15;;;;;;;0.57;0.57;;;;;;;;;;10400127;28;20210;-70
2023/09/04 16:18:16;;;;;;;0.57;0.57;;;;;;;;;;10422509;28;20761;-73
2023/09/04 16:23:20;;;;;;;0.52;0.52;;;;;;;;;;10434344;28;20236;-73
2023/09/04 16:28:22;;;;;;;0.65;0.65;;;;;;;;;;10437258;28;20276;-71
2023/09/04 16:33:24;;;;;;;0.50;0.50;;;;;;;;;;10433568;28;20223;-72
2023/09/04 16:38:27;;;;;;;0.60;0.60;;;;;;;;;;10436686;28;20681;-73
2023/09/04 16:43:28;;;;;;;0.65;0.65;;;;;;;;;;10430763;28;20218;-72
2023/09/04 16:48:30;;;;;;;0.40;0.40;;;;;;;;;;10432538;28;20227;-71
2023/09/04 16:53:31;;;;;;;0.50;0.50;;;;;;;;;;10435505;28;20660;-73
2023/09/04 16:58:33;;;;;;;1.85;0.50;;;;;;;;;;10438719;28;20429;-70
2023/09/04 17:03:34;;;;;;;2.53;0.40;;;;;;;;;;10437145;28;20301;-72
2023/09/04 17:08:35;;;;;;;0.50;0.50;;;;;;;;;;10419498;28;20214;-74
2023/09/04 17:13:36;;;;;;;0.50;0.50;;;;;;;;;;10418422;28;20245;-72
2023/09/04 17:18:38;;;;;;;0.85;0.43;;;;;;;;;;10392907;28;20224;-73
2023/09/04 17:23:39;;;;;;;0.55;0.52;;;;;;;;;;10413705;28;20277;-72
2023/09/04 17:28:40;;;;;;;0.55;0.40;;;;;;;;;;10406685;28;20215;-73
2023/09/04 17:33:42;;;;;;;0.50;0.50;;;;;;;;;;10398121;28;20280;-71
2023/09/04 17:38:43;;;;;;;0.60;0.60;;;;;;;;;;10394143;28;20928;-71
2023/09/04 17:43:44;;;;;;;0.75;0.75;;;;;;;;;;10410023;28;20214;-71
2023/09/04 17:48:45;;;;;;;0.60;0.60;;;;;;;;;;10403136;28;20211;-71
2023/09/04 17:53:46;;;;;;;0.47;0.47;;;;;;;;;;10403358;28;20222;-72
2023/09/04 17:58:47;;;;;;;0.50;0.50;;;;;;;;;;10425775;28;20212;-71
2023/09/04 18:03:48;;;;;;;0.65;0.65;;;;;;;;;;10415070;28;20218;-69
2023/09/04 18:08:50;;;;;;;0.55;0.55;;;;;;;;;;10404947;28;20783;-71
2023/09/04 18:13:51;;;;;;;1.33;0.50;;;;;;;;;;10424988;28;20225;-71
2023/09/04 18:18:52;;;;;;;0.70;0.70;;;;;;;;;;10387839;28;20262;-71
2023/09/04 18:23:55;;;;;;;0.50;0.50;;;;;;;;;;10338672;28;20208;-71
2023/09/04 18:28:56;;;;;;;0.50;0.50;;;;;;;;;;10387699;28;20306;-72
2023/09/04 18:33:57;;;;;;;0.60;0.52;;;;;;;;;;10388088;28;20305;-74
2023/09/04 18:38:58;;;;;;;1.85;0.50;;;;;;;;;;10386017;28;20219;-69
2023/09/04 18:44:00;;;;;;;0.70;0.70;;;;;;;;;;10371200;28;20266;-69
2023/09/04 18:49:01;;;;;;;0.60;0.60;;;;;;;;;;10374605;28;20228;-75
2023/09/04 18:54:02;;;;;;;0.73;0.73;;;;;;;;;;10372710;28;20809;-69
2023/09/04 18:59:03;;;;;;;0.50;0.50;;;;;;;;;;10385513;28;20211;-72
2023/09/04 19:04:04;;;;;;;0.70;0.70;;;;;;;;;;10369735;28;20322;-73
2023/09/04 19:09:05;;;;;;;0.70;0.70;;;;;;;;;;10385380;28;20214;-71
2023/09/04 19:14:06;;;;;;;0.70;0.70;;;;;;;;;;10384251;28;20227;-72
2023/09/04 19:19:07;;;;;;;0.80;0.80;;;;;;;;;;10416643;28;20281;-73
2023/09/04 19:24:08;;;;;;;0.95;0.95;;;;;;;;;;10405758;28;20638;-73
2023/09/04 19:29:10;;;;;;;1.23;0.93;;;;;;;;;;10407631;28;20223;-69
2023/09/04 19:34:11;;;;;;;1.50;0.60;;;;;;;;;;10424308;28;20659;-70
2023/09/04 19:39:12;;;;;;;0.80;0.80;;;;;;;;;;10423452;28;20222;-71
2023/09/04 19:44:13;;;;;;;1.85;0.90;;;;;;;;;;10422102;28;20221;-72
2023/09/04 19:49:14;;;;;;;0.70;0.70;;;;;;;;;;10406376;28;20589;-70
2023/09/04 19:54:15;;;;;;;0.73;0.73;;;;;;;;;;10414544;28;20310;-69
2023/09/04 19:59:16;;;;;;;0.60;0.60;;;;;;;;;;10414443;28;20234;-71
2023/09/04 20:04:18;;;;;;;0.60;0.60;;;;;;;;;;10425524;28;20584;-69
2023/09/04 20:09:19;;;;;;;1.23;1.08;;;;;;;;;;10422235;28;20225;-75
2023/09/04 20:14:20;;;;;;;1.13;1.13;;;;;;;;;;10421819;28;20258;-72
2023/09/04 20:19:21;;;;;;;1.00;1.00;;;;;;;;;;10422758;28;20294;-69
2023/09/04 20:24:22;;;;;;;1.27;1.20;;;;;;;;;;10397192;28;20226;-70
2023/09/04 20:29:24;;;;;;;2.45;1.40;;;;;;;;;;10421872;28;20310;-69
2023/09/04 20:34:25;;;;;;;1.85;1.75;;;;;;;;;;10421127;28;20227;-70
2023/09/04 20:39:26;;;;;;;1.10;1.10;;;;;;;;;;10404424;28;20234;-73
2023/09/04 20:44:27;;;;;;;0.88;0.88;;;;;;;;;;10421589;28;20364;-71
2023/09/04 20:49:29;;;;;;;0.98;0.77;;;;;;;;;;10431366;28;20324;-68
2023/09/04 20:54:31;;;;;;;1.95;1.02;;;;;;;;;;10411663;28;20227;-69
2023/09/04 20:59:32;;;;;;;0.90;0.90;;;;;;;;;;10426387;28;20454;-68
2023/09/04 21:04:33;;;;;;;0.70;0.70;;;;;;;;;;10394136;28;20280;-68
2023/09/04 23:22:32;;;;;;;0.85;0.80;;;;;;;;;;10423927;28;20700;-77
2023/09/04 23:27:33;;;;;;;1.00;1.00;;;;;;;;;;10421910;28;20644;-70
2023/09/04 23:38:06;;;;;;;0.88;0.88;;;;;;;;;;10408033;28;20214;-71
2023/09/04 23:48:29;;;;;;;1.20;0.98;;;;;;;;;;10404668;28;20295;-71
2023/09/04 23:53:30;;;;;;;0.88;0.88;;;;;;;;;;10400296;28;20321;-67
2023/09/04 23:58:31;;;;;;;1.00;0.90;;;;;;;;;;10386498;28;20245;-71
